Terminal Aerodrome Forecast
Issued by NWS

Home | Current Version | Previous Version | Graphics & Text | Print | Product List | Glossary On
Versions: 1 2 3 4 5 6 7 8 9 10 11 12 13 14 15 16 17 18 19 20 21
515
FTUS43 KFGF 262012 AAA
TAFBJI
TAF AMD
KBJI 262012Z 2620/2718 26011KT P6SM BKN050
     FM270100 VRB05KT P6SM SCT050=

USA.gov is the U.S. government's official web portal to all federal, state and local government web resources and services.